sensor_id;sensor_type;location;lat;lon;timestamp;temperature;humidity
37782;DHT22;23621;50.878;4.584;2023-01-28T00:02:02;11.80;61.10
37782;DHT22;23621;50.878;4.584;2023-01-28T00:04:30;11.80;61.20
37782;DHT22;23621;50.878;4.584;2023-01-28T00:06:57;11.80;61.20
37782;DHT22;23621;50.878;4.584;2023-01-28T00:09:23;11.80;61.20
37782;DHT22;23621;50.878;4.584;2023-01-28T00:11:50;11.80;61.20
37782;DHT22;23621;50.878;4.584;2023-01-28T00:14:17;11.80;61.20
37782;DHT22;23621;50.878;4.584;2023-01-28T00:16:45;11.80;61.30
37782;DHT22;23621;50.878;4.584;2023-01-28T00:19:12;11.70;61.10
37782;DHT22;23621;50.878;4.584;2023-01-28T00:21:39;11.80;61.30
37782;DHT22;23621;50.878;4.584;2023-01-28T00:24:07;11.80;61.40
37782;DHT22;23621;50.878;4.584;2023-01-28T00:26:35;11.70;61.40
37782;DHT22;23621;50.878;4.584;2023-01-28T00:29:02;11.80;61.50
37782;DHT22;23621;50.878;4.584;2023-01-28T00:31:30;11.70;61.50
37782;DHT22;23621;50.878;4.584;2023-01-28T00:33:57;11.70;61.20
37782;DHT22;23621;50.878;4.584;2023-01-28T00:36:25;11.70;61.10
37782;DHT22;23621;50.878;4.584;2023-01-28T00:38:55;11.70;61.10
37782;DHT22;23621;50.878;4.584;2023-01-28T00:41:24;11.70;61.00
37782;DHT22;23621;50.878;4.584;2023-01-28T00:43:52;11.60;61.00
37782;DHT22;23621;50.878;4.584;2023-01-28T00:46:20;11.60;61.50
37782;DHT22;23621;50.878;4.584;2023-01-28T00:48:47;11.70;60.90
37782;DHT22;23621;50.878;4.584;2023-01-28T00:51:15;11.70;60.80
37782;DHT22;23621;50.878;4.584;2023-01-28T00:53:43;11.70;60.90
37782;DHT22;23621;50.878;4.584;2023-01-28T00:56:15;11.70;60.70
37782;DHT22;23621;50.878;4.584;2023-01-28T00:58:42;11.70;60.70
37782;DHT22;23621;50.878;4.584;2023-01-28T01:03:45;11.70;60.70
37782;DHT22;23621;50.878;4.584;2023-01-28T01:06:13;11.70;60.70
37782;DHT22;23621;50.878;4.584;2023-01-28T01:08:40;11.70;60.80
37782;DHT22;23621;50.878;4.584;2023-01-28T01:11:10;11.70;60.80
37782;DHT22;23621;50.878;4.584;2023-01-28T01:13:37;11.70;60.90
37782;DHT22;23621;50.878;4.584;2023-01-28T01:16:07;11.70;60.80
37782;DHT22;23621;50.878;4.584;2023-01-28T01:18:35;11.70;60.90
37782;DHT22;23621;50.878;4.584;2023-01-28T01:21:10;11.70;60.80
37782;DHT22;23621;50.878;4.584;2023-01-28T01:23:37;11.70;60.70
37782;DHT22;23621;50.878;4.584;2023-01-28T01:26:05;11.70;60.50
37782;DHT22;23621;50.878;4.584;2023-01-28T01:28:32;11.70;60.50
37782;DHT22;23621;50.878;4.584;2023-01-28T01:31:04;11.80;60.50
37782;DHT22;23621;50.878;4.584;2023-01-28T01:33:31;11.80;60.60
37782;DHT22;23621;50.878;4.584;2023-01-28T01:35:59;11.80;60.40
37782;DHT22;23621;50.878;4.584;2023-01-28T01:38:27;11.80;60.50
37782;DHT22;23621;50.878;4.584;2023-01-28T01:40:58;11.80;60.50
37782;DHT22;23621;50.878;4.584;2023-01-28T01:43:49;11.80;60.40
37782;DHT22;23621;50.878;4.584;2023-01-28T01:46:44;11.80;60.30
37782;DHT22;23621;50.878;4.584;2023-01-28T01:49:25;11.80;60.30
37782;DHT22;23621;50.878;4.584;2023-01-28T01:52:00;11.80;60.30
37782;DHT22;23621;50.878;4.584;2023-01-28T01:54:29;11.80;60.30
37782;DHT22;23621;50.878;4.584;2023-01-28T01:57:00;11.80;60.30
37782;DHT22;23621;50.878;4.584;2023-01-28T01:59:31;11.80;60.30
37782;DHT22;23621;50.878;4.584;2023-01-28T02:02:04;11.80;60.30
37782;DHT22;23621;50.878;4.584;2023-01-28T02:04:40;11.80;60.30
37782;DHT22;23621;50.878;4.584;2023-01-28T02:07:09;11.80;60.30
37782;DHT22;23621;50.878;4.584;2023-01-28T02:09:38;11.70;60.20
37782;DHT22;23621;50.878;4.584;2023-01-28T02:12:21;11.70;60.20
37782;DHT22;23621;50.878;4.584;2023-01-28T02:15:15;11.80;60.30
37782;DHT22;23621;50.878;4.584;2023-01-28T02:17:43;11.70;60.30
37782;DHT22;23621;50.878;4.584;2023-01-28T02:20:20;11.70;60.50
37782;DHT22;23621;50.878;4.584;2023-01-28T02:33:33;11.70;60.50
37782;DHT22;23621;50.878;4.584;2023-01-28T02:36:09;11.70;60.50
37782;DHT22;23621;50.878;4.584;2023-01-28T02:38:45;11.70;60.40
37782;DHT22;23621;50.878;4.584;2023-01-28T02:41:24;11.70;60.40
37782;DHT22;23621;50.878;4.584;2023-01-28T02:43:54;11.70;60.40
37782;DHT22;23621;50.878;4.584;2023-01-28T02:46:32;11.70;60.40
37782;DHT22;23621;50.878;4.584;2023-01-28T02:57:37;11.70;60.40
37782;DHT22;23621;50.878;4.584;2023-01-28T03:00:22;11.60;60.40
37782;DHT22;23621;50.878;4.584;2023-01-28T03:03:15;11.60;60.30
37782;DHT22;23621;50.878;4.584;2023-01-28T03:05:51;11.60;60.40
37782;DHT22;23621;50.878;4.584;2023-01-28T03:11:20;11.60;60.40
37782;DHT22;23621;50.878;4.584;2023-01-28T03:14:07;11.60;60.40
37782;DHT22;23621;50.878;4.584;2023-01-28T03:16:56;11.50;60.30
37782;DHT22;23621;50.878;4.584;2023-01-28T03:19:44;11.50;60.40
37782;DHT22;23621;50.878;4.584;2023-01-28T03:22:33;11.60;60.40
37782;DHT22;23621;50.878;4.584;2023-01-28T03:25:21;11.60;60.40
37782;DHT22;23621;50.878;4.584;2023-01-28T03:28:12;11.50;60.30
37782;DHT22;23621;50.878;4.584;2023-01-28T03:31:12;11.50;60.30
37782;DHT22;23621;50.878;4.584;2023-01-28T03:33:59;11.50;60.20
37782;DHT22;23621;50.878;4.584;2023-01-28T03:36:46;11.50;60.20
37782;DHT22;23621;50.878;4.584;2023-01-28T03:39:18;11.50;60.30
37782;DHT22;23621;50.878;4.584;2023-01-28T03:44:23;11.40;60.20
37782;DHT22;23621;50.878;4.584;2023-01-28T03:47:10;11.40;60.20
37782;DHT22;23621;50.878;4.584;2023-01-28T03:49:39;11.40;60.20
37782;DHT22;23621;50.878;4.584;2023-01-28T03:52:07;11.40;60.20
37782;DHT22;23621;50.878;4.584;2023-01-28T03:54:34;11.40;60.20
37782;DHT22;23621;50.878;4.584;2023-01-28T03:57:02;11.40;60.00
37782;DHT22;23621;50.878;4.584;2023-01-28T03:59:29;11.40;59.90
37782;DHT22;23621;50.878;4.584;2023-01-28T04:01:56;11.50;60.00
37782;DHT22;23621;50.878;4.584;2023-01-28T04:04:23;11.40;59.80
37782;DHT22;23621;50.878;4.584;2023-01-28T04:06:51;11.40;59.90
37782;DHT22;23621;50.878;4.584;2023-01-28T04:09:19;11.40;59.90
37782;DHT22;23621;50.878;4.584;2023-01-28T04:11:47;11.40;59.80
37782;DHT22;23621;50.878;4.584;2023-01-28T04:14:14;11.30;59.70
37782;DHT22;23621;50.878;4.584;2023-01-28T04:16:41;11.30;59.80
37782;DHT22;23621;50.878;4.584;2023-01-28T04:19:09;11.30;59.80
37782;DHT22;23621;50.878;4.584;2023-01-28T04:21:38;11.30;59.80
37782;DHT22;23621;50.878;4.584;2023-01-28T04:24:06;11.30;59.90
37782;DHT22;23621;50.878;4.584;2023-01-28T04:26:33;11.30;59.90
37782;DHT22;23621;50.878;4.584;2023-01-28T04:29:00;11.30;59.70
37782;DHT22;23621;50.878;4.584;2023-01-28T04:31:27;11.30;59.60
37782;DHT22;23621;50.878;4.584;2023-01-28T04:33:54;11.30;59.50
37782;DHT22;23621;50.878;4.584;2023-01-28T04:36:21;11.30;59.50
37782;DHT22;23621;50.878;4.584;2023-01-28T04:38:48;11.30;59.60
37782;DHT22;23621;50.878;4.584;2023-01-28T04:41:15;11.20;59.40
37782;DHT22;23621;50.878;4.584;2023-01-28T04:43:42;11.20;59.30
37782;DHT22;23621;50.878;4.584;2023-01-28T04:46:12;11.20;59.30
37782;DHT22;23621;50.878;4.584;2023-01-28T04:48:39;11.30;59.40
37782;DHT22;23621;50.878;4.584;2023-01-28T04:51:06;11.30;59.40
37782;DHT22;23621;50.878;4.584;2023-01-28T04:53:33;11.30;59.20
37782;DHT22;23621;50.878;4.584;2023-01-28T04:56:00;11.30;59.20
37782;DHT22;23621;50.878;4.584;2023-01-28T04:58:27;11.20;59.10
37782;DHT22;23621;50.878;4.584;2023-01-28T05:00:58;11.20;59.10
37782;DHT22;23621;50.878;4.584;2023-01-28T05:03:26;11.30;59.30
37782;DHT22;23621;50.878;4.584;2023-01-28T05:05:53;11.30;59.40
37782;DHT22;23621;50.878;4.584;2023-01-28T05:08:20;11.20;59.30
37782;DHT22;23621;50.878;4.584;2023-01-28T05:10:47;11.20;59.40
37782;DHT22;23621;50.878;4.584;2023-01-28T05:13:14;11.20;59.40
37782;DHT22;23621;50.878;4.584;2023-01-28T05:15:41;11.30;59.40
37782;DHT22;23621;50.878;4.584;2023-01-28T05:18:08;11.30;59.40
37782;DHT22;23621;50.878;4.584;2023-01-28T05:20:35;11.30;59.40
37782;DHT22;23621;50.878;4.584;2023-01-28T05:23:02;11.30;59.40
37782;DHT22;23621;50.878;4.584;2023-01-28T05:25:29;11.20;59.30
37782;DHT22;23621;50.878;4.584;2023-01-28T05:27:56;11.20;59.30
37782;DHT22;23621;50.878;4.584;2023-01-28T05:30:23;11.30;59.30
37782;DHT22;23621;50.878;4.584;2023-01-28T05:32:54;11.20;59.30
37782;DHT22;23621;50.878;4.584;2023-01-28T05:35:22;11.20;59.40
37782;DHT22;23621;50.878;4.584;2023-01-28T05:37:49;11.20;59.20
37782;DHT22;23621;50.878;4.584;2023-01-28T05:40:16;11.20;59.20
37782;DHT22;23621;50.878;4.584;2023-01-28T05:42:44;11.10;59.00
37782;DHT22;23621;50.878;4.584;2023-01-28T05:45:11;11.10;59.00
37782;DHT22;23621;50.878;4.584;2023-01-28T05:47:38;11.20;59.10
37782;DHT22;23621;50.878;4.584;2023-01-28T05:50:06;11.20;59.00
37782;DHT22;23621;50.878;4.584;2023-01-28T05:52:33;11.20;59.00
37782;DHT22;23621;50.878;4.584;2023-01-28T05:55:00;11.20;58.90
37782;DHT22;23621;50.878;4.584;2023-01-28T05:57:27;11.20;58.80
37782;DHT22;23621;50.878;4.584;2023-01-28T05:59:54;11.20;58.60
37782;DHT22;23621;50.878;4.584;2023-01-28T06:02:21;11.20;58.60
37782;DHT22;23621;50.878;4.584;2023-01-28T06:04:49;11.20;58.60
37782;DHT22;23621;50.878;4.584;2023-01-28T06:07:16;11.20;58.40
37782;DHT22;23621;50.878;4.584;2023-01-28T06:09:46;11.10;58.40
37782;DHT22;23621;50.878;4.584;2023-01-28T06:12:14;11.10;58.30
37782;DHT22;23621;50.878;4.584;2023-01-28T06:14:41;11.10;58.30
37782;DHT22;23621;50.878;4.584;2023-01-28T06:17:08;11.10;58.30
37782;DHT22;23621;50.878;4.584;2023-01-28T06:19:35;11.10;58.20
37782;DHT22;23621;50.878;4.584;2023-01-28T06:22:02;11.10;58.30
37782;DHT22;23621;50.878;4.584;2023-01-28T06:24:30;11.10;58.20
37782;DHT22;23621;50.878;4.584;2023-01-28T06:26:57;11.10;58.40
37782;DHT22;23621;50.878;4.584;2023-01-28T06:29:24;11.10;58.30
37782;DHT22;23621;50.878;4.584;2023-01-28T06:31:51;11.10;58.40
37782;DHT22;23621;50.878;4.584;2023-01-28T06:34:18;11.10;58.60
37782;DHT22;23621;50.878;4.584;2023-01-28T06:36:45;11.10;58.50
37782;DHT22;23621;50.878;4.584;2023-01-28T06:39:12;11.10;58.40
37782;DHT22;23621;50.878;4.584;2023-01-28T06:41:39;11.10;58.40
37782;DHT22;23621;50.878;4.584;2023-01-28T06:44:06;11.10;58.40
37782;DHT22;23621;50.878;4.584;2023-01-28T06:46:33;11.10;58.40
37782;DHT22;23621;50.878;4.584;2023-01-28T06:49:00;11.10;58.20
37782;DHT22;23621;50.878;4.584;2023-01-28T06:51:27;11.10;58.10
37782;DHT22;23621;50.878;4.584;2023-01-28T06:53:54;11.10;58.10
37782;DHT22;23621;50.878;4.584;2023-01-28T06:56:21;11.00;57.90
37782;DHT22;23621;50.878;4.584;2023-01-28T06:58:48;11.00;58.00
37782;DHT22;23621;50.878;4.584;2023-01-28T07:01:15;11.00;58.10
37782;DHT22;23621;50.878;4.584;2023-01-28T07:03:42;11.00;58.10
37782;DHT22;23621;50.878;4.584;2023-01-28T07:06:09;11.00;57.80
37782;DHT22;23621;50.878;4.584;2023-01-28T07:08:36;11.00;57.70
37782;DHT22;23621;50.878;4.584;2023-01-28T07:11:04;11.00;57.70
37782;DHT22;23621;50.878;4.584;2023-01-28T07:13:31;11.00;57.80
37782;DHT22;23621;50.878;4.584;2023-01-28T07:15:58;11.00;57.80
37782;DHT22;23621;50.878;4.584;2023-01-28T07:18:25;11.00;57.80
37782;DHT22;23621;50.878;4.584;2023-01-28T07:20:52;11.00;58.30
37782;DHT22;23621;50.878;4.584;2023-01-28T07:23:19;11.00;57.60
37782;DHT22;23621;50.878;4.584;2023-01-28T07:25:46;11.00;57.50
37782;DHT22;23621;50.878;4.584;2023-01-28T07:28:13;11.00;57.40
37782;DHT22;23621;50.878;4.584;2023-01-28T07:30:50;10.90;57.20
37782;DHT22;23621;50.878;4.584;2023-01-28T07:33:19;10.90;57.00
37782;DHT22;23621;50.878;4.584;2023-01-28T07:35:47;10.90;57.10
37782;DHT22;23621;50.878;4.584;2023-01-28T07:38:15;10.80;57.00
37782;DHT22;23621;50.878;4.584;2023-01-28T07:40:42;10.80;56.90
37782;DHT22;23621;50.878;4.584;2023-01-28T07:43:09;10.80;57.00
37782;DHT22;23621;50.878;4.584;2023-01-28T07:45:36;10.80;57.00
37782;DHT22;23621;50.878;4.584;2023-01-28T07:48:06;10.80;57.00
37782;DHT22;23621;50.878;4.584;2023-01-28T07:50:35;10.90;57.10
37782;DHT22;23621;50.878;4.584;2023-01-28T07:53:04;10.90;57.00
37782;DHT22;23621;50.878;4.584;2023-01-28T07:55:32;10.90;57.00
37782;DHT22;23621;50.878;4.584;2023-01-28T07:58:03;10.90;56.90
37782;DHT22;23621;50.878;4.584;2023-01-28T08:00:32;10.90;57.00
37782;DHT22;23621;50.878;4.584;2023-01-28T08:03:02;10.90;56.90
37782;DHT22;23621;50.878;4.584;2023-01-28T08:05:42;10.90;57.00
37782;DHT22;23621;50.878;4.584;2023-01-28T08:08:10;10.90;57.00
37782;DHT22;23621;50.878;4.584;2023-01-28T08:10:37;10.80;56.90
37782;DHT22;23621;50.878;4.584;2023-01-28T08:13:05;10.80;57.00
37782;DHT22;23621;50.878;4.584;2023-01-28T08:15:33;10.80;57.10
37782;DHT22;23621;50.878;4.584;2023-01-28T08:18:03;10.90;57.90
37782;DHT22;23621;50.878;4.584;2023-01-28T08:20:31;10.90;57.20
37782;DHT22;23621;50.878;4.584;2023-01-28T08:23:06;10.90;57.20
37782;DHT22;23621;50.878;4.584;2023-01-28T08:25:34;10.90;57.20
37782;DHT22;23621;50.878;4.584;2023-01-28T08:28:02;10.90;57.00
37782;DHT22;23621;50.878;4.584;2023-01-28T08:30:30;10.90;57.10
37782;DHT22;23621;50.878;4.584;2023-01-28T08:32:58;10.90;57.10
37782;DHT22;23621;50.878;4.584;2023-01-28T08:35:26;11.00;57.10
37782;DHT22;23621;50.878;4.584;2023-01-28T08:37:53;10.90;56.90
37782;DHT22;23621;50.878;4.584;2023-01-28T08:40:21;10.90;57.00
37782;DHT22;23621;50.878;4.584;2023-01-28T08:42:52;10.90;57.00
37782;DHT22;23621;50.878;4.584;2023-01-28T08:45:21;10.90;57.10
37782;DHT22;23621;50.878;4.584;2023-01-28T08:47:59;10.80;57.00
37782;DHT22;23621;50.878;4.584;2023-01-28T08:50:34;10.90;57.10
37782;DHT22;23621;50.878;4.584;2023-01-28T08:53:04;10.90;57.10
37782;DHT22;23621;50.878;4.584;2023-01-28T08:55:33;10.90;57.00
37782;DHT22;23621;50.878;4.584;2023-01-28T08:58:05;10.90;57.00
37782;DHT22;23621;50.878;4.584;2023-01-28T09:00:33;10.90;56.80
37782;DHT22;23621;50.878;4.584;2023-01-28T09:03:01;10.90;56.70
37782;DHT22;23621;50.878;4.584;2023-01-28T09:05:32;10.80;56.60
37782;DHT22;23621;50.878;4.584;2023-01-28T09:08:01;10.80;56.60
37782;DHT22;23621;50.878;4.584;2023-01-28T09:10:29;10.80;56.40
37782;DHT22;23621;50.878;4.584;2023-01-28T09:12:56;10.80;56.20
37782;DHT22;23621;50.878;4.584;2023-01-28T09:15:23;10.80;56.10
37782;DHT22;23621;50.878;4.584;2023-01-28T09:17:56;10.80;56.10
37782;DHT22;23621;50.878;4.584;2023-01-28T09:20:24;10.80;56.10
37782;DHT22;23621;50.878;4.584;2023-01-28T09:22:51;10.80;56.20
37782;DHT22;23621;50.878;4.584;2023-01-28T09:25:18;10.80;56.10
37782;DHT22;23621;50.878;4.584;2023-01-28T09:27:45;10.80;56.10
37782;DHT22;23621;50.878;4.584;2023-01-28T09:30:13;10.80;56.10
37782;DHT22;23621;50.878;4.584;2023-01-28T09:32:41;10.80;56.00
37782;DHT22;23621;50.878;4.584;2023-01-28T09:35:08;10.80;56.10
37782;DHT22;23621;50.878;4.584;2023-01-28T09:37:36;10.80;56.00
37782;DHT22;23621;50.878;4.584;2023-01-28T09:40:03;10.80;55.90
37782;DHT22;23621;50.878;4.584;2023-01-28T09:43:15;10.80;55.80
37782;DHT22;23621;50.878;4.584;2023-01-28T09:45:43;10.90;55.90
37782;DHT22;23621;50.878;4.584;2023-01-28T09:48:23;10.90;55.90
37782;DHT22;23621;50.878;4.584;2023-01-28T09:50:53;10.90;55.60
37782;DHT22;23621;50.878;4.584;2023-01-28T09:53:34;10.90;55.60
37782;DHT22;23621;50.878;4.584;2023-01-28T09:58:51;10.90;55.60
37782;DHT22;23621;50.878;4.584;2023-01-28T10:01:34;10.90;55.40
37782;DHT22;23621;50.878;4.584;2023-01-28T10:07:18;10.90;55.30
37782;DHT22;23621;50.878;4.584;2023-01-28T10:10:21;10.90;55.20
37782;DHT22;23621;50.878;4.584;2023-01-28T10:13:04;10.90;55.20
37782;DHT22;23621;50.878;4.584;2023-01-28T10:15:50;11.00;55.30
37782;DHT22;23621;50.878;4.584;2023-01-28T10:18:51;11.00;55.00
37782;DHT22;23621;50.878;4.584;2023-01-28T10:21:36;10.80;55.00
37782;DHT22;23621;50.878;4.584;2023-01-28T10:24:35;10.80;55.10
37782;DHT22;23621;50.878;4.584;2023-01-28T10:27:14;10.80;55.00
37782;DHT22;23621;50.878;4.584;2023-01-28T10:29:41;10.90;55.10
37782;DHT22;23621;50.878;4.584;2023-01-28T10:32:26;10.80;54.90
37782;DHT22;23621;50.878;4.584;2023-01-28T10:34:55;10.90;55.00
37782;DHT22;23621;50.878;4.584;2023-01-28T10:37:25;10.90;55.10
37782;DHT22;23621;50.878;4.584;2023-01-28T10:39:56;10.90;55.10
37782;DHT22;23621;50.878;4.584;2023-01-28T10:42:35;11.00;55.20
37782;DHT22;23621;50.878;4.584;2023-01-28T10:45:21;11.00;55.00
37782;DHT22;23621;50.878;4.584;2023-01-28T10:47:50;11.00;54.70
37782;DHT22;23621;50.878;4.584;2023-01-28T10:50:24;11.00;54.80
37782;DHT22;23621;50.878;4.584;2023-01-28T10:52:59;11.00;54.70
37782;DHT22;23621;50.878;4.584;2023-01-28T10:58:20;11.00;54.70
37782;DHT22;23621;50.878;4.584;2023-01-28T11:00:52;11.00;54.70
37782;DHT22;23621;50.878;4.584;2023-01-28T11:03:20;11.10;54.70
37782;DHT22;23621;50.878;4.584;2023-01-28T11:05:56;11.00;54.70
37782;DHT22;23621;50.878;4.584;2023-01-28T11:08:25;11.00;54.60
37782;DHT22;23621;50.878;4.584;2023-01-28T11:10:55;11.10;54.50
37782;DHT22;23621;50.878;4.584;2023-01-28T11:13:24;11.10;54.40
37782;DHT22;23621;50.878;4.584;2023-01-28T11:16:00;11.10;54.40
37782;DHT22;23621;50.878;4.584;2023-01-28T11:18:38;11.10;54.40
37782;DHT22;23621;50.878;4.584;2023-01-28T11:21:35;11.10;54.40
37782;DHT22;23621;50.878;4.584;2023-01-28T11:24:11;11.10;54.30
37782;DHT22;23621;50.878;4.584;2023-01-28T11:26:44;11.10;54.20
37782;DHT22;23621;50.878;4.584;2023-01-28T11:29:30;11.10;54.20
37782;DHT22;23621;50.878;4.584;2023-01-28T11:31:58;11.20;54.30
37782;DHT22;23621;50.878;4.584;2023-01-28T11:34:28;11.10;54.20
37782;DHT22;23621;50.878;4.584;2023-01-28T11:37:02;11.00;54.30
37782;DHT22;23621;50.878;4.584;2023-01-28T11:39:30;11.10;54.40
37782;DHT22;23621;50.878;4.584;2023-01-28T11:42:21;11.00;54.30
37782;DHT22;23621;50.878;4.584;2023-01-28T11:44:49;11.00;54.20
37782;DHT22;23621;50.878;4.584;2023-01-28T11:47:25;11.00;54.40
37782;DHT22;23621;50.878;4.584;2023-01-28T11:50:14;11.00;54.50
37782;DHT22;23621;50.878;4.584;2023-01-28T11:58:34;11.10;53.90
37782;DHT22;23621;50.878;4.584;2023-01-28T12:01:19;11.00;53.70
37782;DHT22;23621;50.878;4.584;2023-01-28T12:04:18;11.00;53.90
37782;DHT22;23621;50.878;4.584;2023-01-28T12:07:21;11.00;54.00
37782;DHT22;23621;50.878;4.584;2023-01-28T12:10:04;11.10;54.10
37782;DHT22;23621;50.878;4.584;2023-01-28T12:25:43;11.20;54.10
37782;DHT22;23621;50.878;4.584;2023-01-28T12:42:37;11.20;53.70
37782;DHT22;23621;50.878;4.584;2023-01-28T12:45:42;11.20;53.80
37782;DHT22;23621;50.878;4.584;2023-01-28T12:48:46;11.20;53.70
37782;DHT22;23621;50.878;4.584;2023-01-28T12:51:22;11.20;53.90
37782;DHT22;23621;50.878;4.584;2023-01-28T12:53:51;11.10;54.00
37782;DHT22;23621;50.878;4.584;2023-01-28T12:56:34;11.10;54.10
37782;DHT22;23621;50.878;4.584;2023-01-28T12:59:10;11.10;54.10
37782;DHT22;23621;50.878;4.584;2023-01-28T13:01:47;11.10;54.10
37782;DHT22;23621;50.878;4.584;2023-01-28T13:07:17;11.10;54.00
37782;DHT22;23621;50.878;4.584;2023-01-28T13:09:51;11.00;54.10
37782;DHT22;23621;50.878;4.584;2023-01-28T13:12:20;11.10;54.30
37782;DHT22;23621;50.878;4.584;2023-01-28T13:14:47;11.10;54.40
37782;DHT22;23621;50.878;4.584;2023-01-28T13:17:28;11.10;54.50
37782;DHT22;23621;50.878;4.584;2023-01-28T13:27:25;9.30;54.60
37782;DHT22;23621;50.878;4.584;2023-01-28T13:30:05;9.00;57.10
37782;DHT22;23621;50.878;4.584;2023-01-28T13:33:00;9.50;57.50
37782;DHT22;23621;50.878;4.584;2023-01-28T13:35:39;10.00;55.90
37782;DHT22;23621;50.878;4.584;2023-01-28T13:38:17;10.40;55.60
37782;DHT22;23621;50.878;4.584;2023-01-28T13:40:59;10.60;55.40
37782;DHT22;23621;50.878;4.584;2023-01-28T13:46:09;10.90;54.90
37782;DHT22;23621;50.878;4.584;2023-01-28T13:48:50;10.90;54.70
37782;DHT22;23621;50.878;4.584;2023-01-28T13:51:31;11.00;54.80
37782;DHT22;23621;50.878;4.584;2023-01-28T13:54:18;11.10;54.70
37782;DHT22;23621;50.878;4.584;2023-01-28T13:59:48;11.20;54.40
37782;DHT22;23621;50.878;4.584;2023-01-28T14:02:42;11.30;54.30
37782;DHT22;23621;50.878;4.584;2023-01-28T14:05:23;11.40;54.30
37782;DHT22;23621;50.878;4.584;2023-01-28T14:08:16;11.40;54.20
37782;DHT22;23621;50.878;4.584;2023-01-28T14:16:40;11.50;54.10
37782;DHT22;23621;50.878;4.584;2023-01-28T14:19:13;11.50;54.20
37782;DHT22;23621;50.878;4.584;2023-01-28T14:21:44;11.50;54.20
37782;DHT22;23621;50.878;4.584;2023-01-28T14:24:15;11.50;54.10
37782;DHT22;23621;50.878;4.584;2023-01-28T14:27:01;11.60;54.10
37782;DHT22;23621;50.878;4.584;2023-01-28T14:32:27;11.60;54.00
37782;DHT22;23621;50.878;4.584;2023-01-28T14:35:06;11.60;53.90
37782;DHT22;23621;50.878;4.584;2023-01-28T14:37:35;11.60;53.90
37782;DHT22;23621;50.878;4.584;2023-01-28T14:40:06;11.60;54.00
37782;DHT22;23621;50.878;4.584;2023-01-28T14:42:40;11.70;54.00
37782;DHT22;23621;50.878;4.584;2023-01-28T14:48:16;11.70;54.10
37782;DHT22;23621;50.878;4.584;2023-01-28T14:59:58;11.50;53.50
37782;DHT22;23621;50.878;4.584;2023-01-28T15:02:29;11.50;53.70
37782;DHT22;23621;50.878;4.584;2023-01-28T15:05:20;11.40;53.80
37782;DHT22;23621;50.878;4.584;2023-01-28T15:07:48;11.50;53.90
37782;DHT22;23621;50.878;4.584;2023-01-28T15:10:24;11.40;53.90
37782;DHT22;23621;50.878;4.584;2023-01-28T15:13:07;11.40;54.00
37782;DHT22;23621;50.878;4.584;2023-01-28T15:15:39;11.40;54.20
37782;DHT22;23621;50.878;4.584;2023-01-28T15:18:16;11.40;54.30
37782;DHT22;23621;50.878;4.584;2023-01-28T15:20:46;11.40;55.10
37782;DHT22;23621;50.878;4.584;2023-01-28T15:23:16;11.40;54.30
37782;DHT22;23621;50.878;4.584;2023-01-28T15:25:45;11.40;54.10
37782;DHT22;23621;50.878;4.584;2023-01-28T15:28:35;11.40;54.00
37782;DHT22;23621;50.878;4.584;2023-01-28T15:31:03;11.40;53.90
37782;DHT22;23621;50.878;4.584;2023-01-28T15:33:30;11.30;53.80
37782;DHT22;23621;50.878;4.584;2023-01-28T15:35:58;11.30;53.80
37782;DHT22;23621;50.878;4.584;2023-01-28T15:38:27;11.30;53.80
37782;DHT22;23621;50.878;4.584;2023-01-28T15:41:00;11.30;53.90
37782;DHT22;23621;50.878;4.584;2023-01-28T15:43:33;11.30;53.80
37782;DHT22;23621;50.878;4.584;2023-01-28T15:46:01;11.30;53.80
37782;DHT22;23621;50.878;4.584;2023-01-28T15:49:02;11.30;53.90
37782;DHT22;23621;50.878;4.584;2023-01-28T15:51:31;11.30;53.90
37782;DHT22;23621;50.878;4.584;2023-01-28T15:54:05;11.20;54.00
37782;DHT22;23621;50.878;4.584;2023-01-28T15:56:33;11.30;54.00
37782;DHT22;23621;50.878;4.584;2023-01-28T16:01:43;11.30;53.90
37782;DHT22;23621;50.878;4.584;2023-01-28T16:04:22;11.20;53.80
37782;DHT22;23621;50.878;4.584;2023-01-28T16:06:50;11.20;53.80
37782;DHT22;23621;50.878;4.584;2023-01-28T16:09:29;11.20;54.00
37782;DHT22;23621;50.878;4.584;2023-01-28T16:12:07;11.20;53.90
37782;DHT22;23621;50.878;4.584;2023-01-28T16:14:45;11.20;54.00
37782;DHT22;23621;50.878;4.584;2023-01-28T16:17:23;11.20;53.90
37782;DHT22;23621;50.878;4.584;2023-01-28T16:19:57;11.10;53.80
37782;DHT22;23621;50.878;4.584;2023-01-28T16:22:36;11.10;54.00
37782;DHT22;23621;50.878;4.584;2023-01-28T16:25:24;11.10;54.10
37782;DHT22;23621;50.878;4.584;2023-01-28T16:27:52;11.00;54.10
37782;DHT22;23621;50.878;4.584;2023-01-28T16:30:19;11.00;54.10
37782;DHT22;23621;50.878;4.584;2023-01-28T16:32:46;11.00;54.30
37782;DHT22;23621;50.878;4.584;2023-01-28T16:35:14;11.00;54.50
37782;DHT22;23621;50.878;4.584;2023-01-28T16:37:44;11.00;54.40
37782;DHT22;23621;50.878;4.584;2023-01-28T16:40:13;11.00;54.20
37782;DHT22;23621;50.878;4.584;2023-01-28T16:42:45;11.00;54.20
37782;DHT22;23621;50.878;4.584;2023-01-28T16:45:23;11.10;54.30
37782;DHT22;23621;50.878;4.584;2023-01-28T16:47:51;11.00;54.40
37782;DHT22;23621;50.878;4.584;2023-01-28T16:50:19;11.00;54.50
37782;DHT22;23621;50.878;4.584;2023-01-28T16:52:50;11.00;54.50
37782;DHT22;23621;50.878;4.584;2023-01-28T16:55:21;11.00;54.60
37782;DHT22;23621;50.878;4.584;2023-01-28T16:57:49;11.00;54.70
37782;DHT22;23621;50.878;4.584;2023-01-28T17:00:21;11.00;54.90
37782;DHT22;23621;50.878;4.584;2023-01-28T17:02:49;11.00;55.00
37782;DHT22;23621;50.878;4.584;2023-01-28T17:05:16;11.00;55.00
37782;DHT22;23621;50.878;4.584;2023-01-28T17:07:46;10.90;54.80
37782;DHT22;23621;50.878;4.584;2023-01-28T17:10:15;10.90;54.90
37782;DHT22;23621;50.878;4.584;2023-01-28T17:12:43;10.90;54.90
37782;DHT22;23621;50.878;4.584;2023-01-28T17:15:10;10.90;55.00
37782;DHT22;23621;50.878;4.584;2023-01-28T17:17:48;10.90;54.90
37782;DHT22;23621;50.878;4.584;2023-01-28T17:20:16;10.90;55.00
37782;DHT22;23621;50.878;4.584;2023-01-28T17:22:43;10.90;55.00
37782;DHT22;23621;50.878;4.584;2023-01-28T17:25:11;10.90;54.80
37782;DHT22;23621;50.878;4.584;2023-01-28T17:27:38;10.90;54.70
37782;DHT22;23621;50.878;4.584;2023-01-28T17:30:06;10.90;54.80
37782;DHT22;23621;50.878;4.584;2023-01-28T17:32:33;10.80;54.80
37782;DHT22;23621;50.878;4.584;2023-01-28T17:35:00;10.80;54.90
37782;DHT22;23621;50.878;4.584;2023-01-28T17:37:27;10.80;54.90
37782;DHT22;23621;50.878;4.584;2023-01-28T17:39:54;10.80;54.90
37782;DHT22;23621;50.878;4.584;2023-01-28T17:42:21;10.70;54.90
37782;DHT22;23621;50.878;4.584;2023-01-28T17:44:48;10.70;55.10
37782;DHT22;23621;50.878;4.584;2023-01-28T17:47:15;10.60;55.00
37782;DHT22;23621;50.878;4.584;2023-01-28T17:49:42;10.60;55.10
37782;DHT22;23621;50.878;4.584;2023-01-28T17:52:09;10.50;55.10